Kittery Point, ME

8:53 AM EDT on September 28, 2016 (GMT -0400)
Pepperrell Cove | | Change Station

Elev 39 ft 43.08 °N, 70.69 °W | Updated 6 seconds ago

Overcast
Overcast
56.8 °F
Feels Like 56.8 °F
N
0.0
Wind Variable Wind from NE
Gusts 0.0 mph

Today
High -- | Low -- °F
--% Chance of Precip.
Yesterday
High -- | Low -- °F
Precip. -- in
Pressure 30.21 in
Visibility 10.0 miles
Clouds Overcast 1300 ft
Dew Point 54 °F
Humidity 92%
Rainfall 0.00 in
Snow Depth Not available.
6:37 AM 6:28 PM
Waning Crescent, 6% visible
METAR KPSM 281158Z COR 06011G15KT 10SM OVC013 14/11 A3020 RMK AO2A SLP229 70001 T01380106 10149 20135 52021 COR 1200
Pressure 30.21 in
Visibility 10.0 miles
Clouds Overcast 1300 ft
Dew Point 54 °F
Humidity 92%
Rainfall 0.00 in
Snow Depth Not available.
6:37 AM 6:28 PM
Waning Crescent, 6% visible
METAR KPSM 281158Z COR 06011G15KT 10SM OVC013 14/11 A3020 RMK AO2A SLP229 70001 T01380106 10149 20135 52021 COR 1200

10-Day Weather Forecast

Almanac

Astronomy

Sep. 28, 2016 Rise Set
Actual Time
Civil Twilight
Nautical Twilight
Astronomical Twilight
Moon
Length of Visible Light
Length of Day
Tomorrow will be .
, % of the Moon is Illuminated

Today's Extremes

State Highs State Lows

Community

WunderPhotos

Upload Photos

1,942,248 photos uploaded!

WunderBlog® & News

Nearby

Air Quality

  Air Quality AQ Index Pollutant
Not available.

Snow Depth

Station Depth Elevation

Earthquake Activity

City Distance Mag. Time & Date
Minimum magnitude displayed is 2.5.

Coastal Water Temperatures

Place Temperature

Stations

Nearby Weather Stations

Station Location Temp. Windchill Dew Point Humidity Wind Precip. Elev Updated Type
                   

Watches & Warnings

There are currently no watches in effect.